createdAt,value
2017-11-26T00:01:05.773Z,22.50
2017-11-26T00:03:33.174Z,23.57
2017-11-26T00:06:00.479Z,22.07
2017-11-26T00:08:27.870Z,22.43
2017-11-26T00:10:55.502Z,21.63
2017-11-26T00:13:23.179Z,22.60
2017-11-26T00:15:50.526Z,23.70
2017-11-26T00:18:17.845Z,23.37
2017-11-26T00:20:45.245Z,22.63
2017-11-26T00:23:12.886Z,22.60
2017-11-26T00:25:40.227Z,20.77
2017-11-26T00:28:07.584Z,23.00
2017-11-26T00:30:34.981Z,23.33
2017-11-26T00:33:02.615Z,23.63
2017-11-26T00:35:30.321Z,23.73
2017-11-26T00:37:57.940Z,25.67
2017-11-26T00:40:25.315Z,23.63
2017-11-26T00:42:52.659Z,23.00
2017-11-26T00:45:19.986Z,23.57
2017-11-26T00:47:47.733Z,21.63
2017-11-26T00:50:15.156Z,25.27
2017-11-26T00:52:42.776Z,19.97
2017-11-26T00:55:10.210Z,21.50
2017-11-26T00:57:37.523Z,21.63
2017-11-26T01:00:05.154Z,23.80
2017-11-26T01:02:32.531Z,25.83
2017-11-26T01:05:00.174Z,23.80
2017-11-26T01:07:27.882Z,25.27
2017-11-26T01:09:55.193Z,24.60
2017-11-26T01:12:22.517Z,23.10
2017-11-26T01:14:49.923Z,23.13
2017-11-26T01:17:17.569Z,24.57
2017-11-26T01:19:45.225Z,24.50
2017-11-26T01:22:12.550Z,24.13
2017-11-26T01:24:40.267Z,21.07
2017-11-26T01:27:07.915Z,21.80
2017-11-26T01:29:35.444Z,23.00
2017-11-26T01:32:02.842Z,22.53
2017-11-26T01:34:30.476Z,22.50
2017-11-26T01:36:57.921Z,24.20
2017-11-26T01:39:25.233Z,23.10
2017-11-26T01:41:52.556Z,23.10
2017-11-26T01:44:19.910Z,22.73
2017-11-26T01:46:47.561Z,22.53
2017-11-26T01:49:14.872Z,23.50
2017-11-26T01:51:42.225Z,22.57
2017-11-26T01:54:09.540Z,23.00
2017-11-26T01:56:37.179Z,22.97
2017-11-26T01:59:04.553Z,22.77
2017-11-26T02:01:31.986Z,21.27
2017-11-26T02:03:59.324Z,20.90
2017-11-26T02:06:27.013Z,21.80
2017-11-26T02:08:54.335Z,24.10
2017-11-26T02:11:22.023Z,22.73
2017-11-26T02:13:49.356Z,22.20
2017-11-26T02:16:16.818Z,21.97
2017-11-26T02:18:44.205Z,21.77
2017-11-26T02:21:11.850Z,22.00
2017-11-26T02:23:39.217Z,22.77
2017-11-26T02:26:06.773Z,23.17
2017-11-26T02:28:34.066Z,23.13
2017-11-26T02:31:01.451Z,25.07
2017-11-26T02:33:34.693Z,22.73
2017-11-26T02:36:08.364Z,23.77
2017-11-26T02:38:35.714Z,23.53
2017-11-26T02:41:03.049Z,22.60
2017-11-26T02:43:30.425Z,23.40
2017-11-26T02:45:57.784Z,24.13
2017-11-26T02:48:25.091Z,24.60
2017-11-26T02:50:52.420Z,24.60
2017-11-26T02:53:20.561Z,25.77
2017-11-26T02:55:47.934Z,24.93
2017-11-26T02:58:15.581Z,20.20
2017-11-26T03:00:42.894Z,26.07
2017-11-26T03:03:10.221Z,22.83
2017-11-26T03:05:37.877Z,23.83
2017-11-26T03:08:05.510Z,23.97
2017-11-26T03:10:32.815Z,23.87
2017-11-26T03:13:00.132Z,25.20
2017-11-26T03:15:27.770Z,26.30
2017-11-26T03:17:55.155Z,24.23
2017-11-26T03:20:23.682Z,23.73
2017-11-26T03:22:51.391Z,25.00
2017-11-26T03:25:19.025Z,24.27
2017-11-26T03:27:46.421Z,25.00
2017-11-26T03:30:14.042Z,23.80
2017-11-26T03:32:41.730Z,23.53
2017-11-26T03:35:09.394Z,24.07
2017-11-26T03:37:37.070Z,23.50
2017-11-26T03:40:04.711Z,24.13
2017-11-26T03:42:32.052Z,23.00
2017-11-26T03:44:59.367Z,22.90
2017-11-26T03:47:26.669Z,21.87
2017-11-26T03:49:54.054Z,22.50
2017-11-26T03:52:21.670Z,24.30
2017-11-26T03:54:49.341Z,23.67
2017-11-26T03:57:16.651Z,24.47
2017-11-26T03:59:43.988Z,24.90
2017-11-26T04:02:11.609Z,25.07
2017-11-26T04:04:38.984Z,24.23
2017-11-26T04:07:06.679Z,23.43
2017-11-26T04:09:34.016Z,22.10
2017-11-26T04:12:01.310Z,21.70
2017-11-26T04:14:28.698Z,24.00
2017-11-26T04:16:56.334Z,22.17
2017-11-26T04:19:24.017Z,24.20
2017-11-26T04:21:51.365Z,24.50
2017-11-26T04:24:18.694Z,24.00
2017-11-26T04:26:46.402Z,22.43
2017-11-26T04:29:14.141Z,23.43
2017-11-26T04:31:41.456Z,21.67
2017-11-26T04:34:08.782Z,21.90
2017-11-26T04:36:36.641Z,22.33
2017-11-26T04:39:04.494Z,23.83
2017-11-26T04:41:32.349Z,21.90
2017-11-26T04:43:59.673Z,21.77
2017-11-26T04:46:27.579Z,22.73
2017-11-26T04:48:54.899Z,23.30
2017-11-26T04:51:22.236Z,21.80
2017-11-26T04:53:49.547Z,22.57
2017-11-26T04:56:16.882Z,20.93
2017-11-26T04:58:44.189Z,23.27
2017-11-26T05:01:11.517Z,23.20
2017-11-26T05:03:39.173Z,22.47
2017-11-26T05:06:07.024Z,20.20
2017-11-26T05:08:34.383Z,22.23
2017-11-26T05:11:01.713Z,21.80
2017-11-26T05:13:29.078Z,22.33
2017-11-26T05:15:56.384Z,21.33
2017-11-26T05:18:23.721Z,19.33
2017-11-26T05:20:51.539Z,19.27
2017-11-26T05:23:18.932Z,20.43
2017-11-26T05:25:46.763Z,19.73
2017-11-26T05:28:14.654Z,20.03
2017-11-26T05:30:42.496Z,19.50
2017-11-26T05:33:09.813Z,21.37
2017-11-26T05:35:37.132Z,20.10
2017-11-26T05:38:04.985Z,22.07
2017-11-26T05:40:32.299Z,19.67
2017-11-26T05:42:59.622Z,20.93
2017-11-26T05:45:27.441Z,20.97
2017-11-26T05:47:54.970Z,20.40
2017-11-26T05:50:22.296Z,21.53
2017-11-26T05:52:49.773Z,23.93
2017-11-26T05:55:17.086Z,22.60
2017-11-26T05:57:44.432Z,23.47
2017-11-26T06:00:11.741Z,24.37
2017-11-26T06:02:39.086Z,24.80
2017-11-26T06:05:06.390Z,24.37
2017-11-26T06:07:33.699Z,23.50
2017-11-26T06:10:01.076Z,22.27
2017-11-26T06:12:28.492Z,22.23
2017-11-26T06:14:56.322Z,23.20
2017-11-26T06:17:23.631Z,25.90
2017-11-26T06:19:50.962Z,24.20
2017-11-26T06:22:18.376Z,23.63
2017-11-26T06:24:45.700Z,23.97
2017-11-26T06:27:13.022Z,25.20
2017-11-26T06:29:40.870Z,24.57
2017-11-26T06:32:08.174Z,23.47
2017-11-26T06:34:35.494Z,25.40
2017-11-26T06:37:03.154Z,23.00
2017-11-26T06:39:30.688Z,25.70
2017-11-26T06:41:57.993Z,23.90
2017-11-26T06:44:25.317Z,28.53
2017-11-26T06:46:52.945Z,28.10
2017-11-26T06:49:20.604Z,27.00
2017-11-26T06:51:48.000Z,27.07
2017-11-26T06:54:15.522Z,22.90
2017-11-26T06:56:43.197Z,23.47
2017-11-26T06:59:10.505Z,24.20
2017-11-26T07:01:39.053Z,26.17
2017-11-26T07:04:09.931Z,24.97
2017-11-26T07:06:37.342Z,26.40
2017-11-26T07:09:05.954Z,24.23
2017-11-26T07:11:33.278Z,24.43
2017-11-26T07:14:00.937Z,27.00
2017-11-26T07:16:28.261Z,24.80
2017-11-26T07:18:55.625Z,25.53
2017-11-26T07:21:22.945Z,24.27
2017-11-26T07:23:50.643Z,24.13
2017-11-26T07:26:18.031Z,23.83
2017-11-26T07:28:45.672Z,24.90
2017-11-26T07:31:13.020Z,23.50
2017-11-26T07:33:40.317Z,23.63
2017-11-26T07:36:11.291Z,23.90
2017-11-26T07:38:38.707Z,23.70
2017-11-26T07:41:06.346Z,24.03
2017-11-26T07:43:33.986Z,24.63
2017-11-26T07:46:01.293Z,22.20
2017-11-26T07:48:28.622Z,23.67
2017-11-26T07:50:56.242Z,25.57
2017-11-26T07:53:23.561Z,23.90
2017-11-26T07:55:50.871Z,23.70
2017-11-26T07:58:18.542Z,24.70
2017-11-26T08:00:46.176Z,23.80
2017-11-26T08:03:13.863Z,19.80
2017-11-26T08:05:41.528Z,20.67
2017-11-26T08:08:09.194Z,22.13
2017-11-26T08:10:36.500Z,20.80
2017-11-26T08:13:04.176Z,20.80
2017-11-26T08:15:31.571Z,20.17
2017-11-26T08:17:59.198Z,19.93
2017-11-26T08:20:26.571Z,20.93
2017-11-26T08:22:54.066Z,19.83
2017-11-26T08:25:21.387Z,19.50
2017-11-26T08:27:49.310Z,19.57
2017-11-26T08:30:16.997Z,20.30
2017-11-26T08:32:44.398Z,19.33
2017-11-26T08:35:11.728Z,19.73
2017-11-26T08:37:39.356Z,20.10
2017-11-26T08:40:07.038Z,19.47
2017-11-26T08:42:34.382Z,18.70
2017-11-26T08:45:01.756Z,15.90
2017-11-26T08:47:29.434Z,19.60
2017-11-26T08:49:57.074Z,18.17
2017-11-26T08:52:24.728Z,17.33
2017-11-26T08:54:52.051Z,18.40
2017-11-26T08:57:19.614Z,17.50
2017-11-26T08:59:46.971Z,16.20
2017-11-26T09:02:14.274Z,17.67
2017-11-26T09:04:41.894Z,18.07
2017-11-26T09:07:24.464Z,18.00
2017-11-26T09:09:52.075Z,17.03
2017-11-26T09:12:19.400Z,17.47
2017-11-26T09:14:46.781Z,17.27
2017-11-26T09:17:14.124Z,18.70
2017-11-26T09:19:41.489Z,17.40
2017-11-26T09:22:08.815Z,17.73
2017-11-26T09:24:36.213Z,16.53
2017-11-26T09:27:03.545Z,16.90
2017-11-26T09:29:30.931Z,15.83
2017-11-26T09:31:58.589Z,16.00
2017-11-26T09:34:25.932Z,16.43
2017-11-26T09:36:53.257Z,16.00
2017-11-26T09:39:20.685Z,13.80
2017-11-26T09:41:48.150Z,15.50
2017-11-26T09:44:15.455Z,15.90
2017-11-26T09:46:42.774Z,15.40
2017-11-26T09:49:10.445Z,15.73
2017-11-26T09:51:37.876Z,17.37
2017-11-26T09:54:05.836Z,17.03
2017-11-26T09:56:33.991Z,16.40
2017-11-26T09:59:01.639Z,16.47
2017-11-26T10:01:28.954Z,14.33
2017-11-26T10:03:56.356Z,15.00
2017-11-26T10:06:26.898Z,14.83
2017-11-26T10:08:54.229Z,14.80
2017-11-26T10:11:21.878Z,13.03
2017-11-26T10:13:49.209Z,14.70
2017-11-26T10:16:16.886Z,14.03
2017-11-26T10:18:44.553Z,13.80
2017-11-26T10:21:11.853Z,15.30
2017-11-26T10:23:39.169Z,14.87
2017-11-26T10:26:06.477Z,14.90
2017-11-26T10:28:33.881Z,14.87
2017-11-26T10:31:01.690Z,14.90
2017-11-26T10:33:29.030Z,14.27
2017-11-26T10:35:56.640Z,13.80
2017-11-26T10:38:23.990Z,13.57
2017-11-26T10:40:51.354Z,14.10
2017-11-26T10:43:18.663Z,13.10
2017-11-26T10:45:45.989Z,11.93
2017-11-26T10:48:13.420Z,11.97
2017-11-26T10:50:40.762Z,12.40
2017-11-26T10:53:08.438Z,11.47
2017-11-26T10:55:35.772Z,11.93
2017-11-26T10:58:03.169Z,12.20
2017-11-26T11:00:30.824Z,10.27
2017-11-26T11:02:58.191Z,11.37
2017-11-26T11:05:25.830Z,11.40
2017-11-26T11:07:53.129Z,9.17
2017-11-26T11:10:20.502Z,9.60
2017-11-26T11:12:47.805Z,8.50
2017-11-26T11:15:15.434Z,9.07
2017-11-26T11:17:43.122Z,9.37
2017-11-26T11:20:10.785Z,10.30
2017-11-26T11:22:38.442Z,11.10
2017-11-26T11:25:06.089Z,11.80
2017-11-26T11:27:33.433Z,11.10
2017-11-26T11:30:01.099Z,10.40
2017-11-26T11:32:28.484Z,9.23
2017-11-26T11:34:56.114Z,9.93
2017-11-26T11:37:23.529Z,9.23
2017-11-26T11:39:50.864Z,8.00
2017-11-26T11:42:18.306Z,9.60
2017-11-26T11:44:45.943Z,9.00
2017-11-26T11:47:13.659Z,8.67
2017-11-26T11:49:41.268Z,9.63
2017-11-26T11:52:08.927Z,8.57
2017-11-26T11:54:36.372Z,8.03
2017-11-26T11:57:04.273Z,9.50
2017-11-26T11:59:31.603Z,8.70
2017-11-26T12:01:59.516Z,8.50
2017-11-26T12:04:27.361Z,8.50
2017-11-26T12:06:54.704Z,8.20
2017-11-26T12:09:22.022Z,8.93
2017-11-26T12:11:49.604Z,8.30
2017-11-26T12:14:17.482Z,8.93
2017-11-26T12:16:44.805Z,8.33
2017-11-26T12:19:12.717Z,8.00
2017-11-26T12:21:40.568Z,7.20
2017-11-26T12:24:07.889Z,8.10
2017-11-26T12:26:35.882Z,8.10
2017-11-26T12:29:03.762Z,7.30
2017-11-26T12:31:31.077Z,8.83
2017-11-26T12:33:58.999Z,8.53
2017-11-26T12:36:26.869Z,7.43
2017-11-26T12:38:54.717Z,8.20
2017-11-26T12:41:22.029Z,9.50
2017-11-26T12:43:49.922Z,7.23
2017-11-26T12:46:17.797Z,8.70
2017-11-26T12:48:45.106Z,7.50
2017-11-26T12:51:12.412Z,7.33
2017-11-26T12:53:39.716Z,8.10
2017-11-26T12:56:07.039Z,7.53
2017-11-26T12:58:34.682Z,6.60
2017-11-26T13:01:02.024Z,8.70
2017-11-26T13:03:29.677Z,8.50
2017-11-26T13:05:57.356Z,8.07
2017-11-26T13:08:24.665Z,8.40
2017-11-26T13:10:51.976Z,7.57
2017-11-26T13:13:19.299Z,8.43
2017-11-26T13:15:47.174Z,9.10
2017-11-26T13:18:15.050Z,11.17
2017-11-26T13:20:42.378Z,8.50
2017-11-26T13:23:10.268Z,7.13
2017-11-26T13:25:38.126Z,7.63
2017-11-26T13:28:06.048Z,8.13
2017-11-26T13:30:33.364Z,7.90
2017-11-26T13:33:00.681Z,6.93
2017-11-26T13:35:28.979Z,7.80
2017-11-26T13:37:56.390Z,8.67
2017-11-26T13:40:24.140Z,8.10
2017-11-26T13:42:51.982Z,6.67
2017-11-26T13:45:19.294Z,6.90
2017-11-26T13:47:47.229Z,7.00
2017-11-26T13:50:14.543Z,7.10
2017-11-26T13:52:42.470Z,6.60
2017-11-26T13:55:09.777Z,6.57
2017-11-26T13:57:37.206Z,6.90
2017-11-26T14:00:05.093Z,7.07
2017-11-26T14:02:32.387Z,7.10
2017-11-26T14:04:59.709Z,7.07
2017-11-26T14:07:27.202Z,7.30
2017-11-26T14:09:54.530Z,5.73
2017-11-26T14:12:22.352Z,7.20
2017-11-26T14:14:49.687Z,7.67
2017-11-26T14:17:16.995Z,6.03
2017-11-26T14:19:44.334Z,7.10
2017-11-26T14:22:11.640Z,7.27
2017-11-26T14:24:38.981Z,7.90
2017-11-26T14:27:06.587Z,7.40
2017-11-26T14:29:34.246Z,6.83
2017-11-26T14:32:01.652Z,7.93
2017-11-26T14:34:29.469Z,7.60
2017-11-26T14:36:57.406Z,8.40
2017-11-26T14:39:24.733Z,7.77
2017-11-26T14:41:52.574Z,8.50
2017-11-26T14:44:19.971Z,7.87
2017-11-26T14:46:47.822Z,8.03
2017-11-26T14:49:15.750Z,7.93
2017-11-26T14:51:43.064Z,7.50
2017-11-26T14:54:10.439Z,8.33
2017-11-26T14:56:38.338Z,7.37
2017-11-26T14:59:05.642Z,7.93
2017-11-26T15:01:32.992Z,7.20
2017-11-26T15:04:00.293Z,7.90
2017-11-26T15:06:28.190Z,8.47
2017-11-26T15:08:56.050Z,8.60
2017-11-26T15:11:23.337Z,8.53
2017-11-26T15:13:50.655Z,8.30
2017-11-26T15:16:18.270Z,7.60
2017-11-26T15:18:45.671Z,7.50
2017-11-26T15:21:13.508Z,7.20
2017-11-26T15:23:42.197Z,7.20
2017-11-26T15:26:10.103Z,7.70
2017-11-26T15:28:38.023Z,9.77
2017-11-26T15:31:05.974Z,7.00
2017-11-26T15:33:33.872Z,6.90
2017-11-26T15:36:01.561Z,6.40
2017-11-26T15:38:29.307Z,6.87
2017-11-26T15:40:56.629Z,6.40
2017-11-26T15:43:24.520Z,6.37
2017-11-26T15:45:52.402Z,6.43
2017-11-26T15:48:19.709Z,7.07
2017-11-26T15:50:47.604Z,6.13
2017-11-26T15:53:15.346Z,6.40
2017-11-26T15:55:43.036Z,6.00
2017-11-26T15:58:10.345Z,7.00
2017-11-26T16:00:37.954Z,6.50
2017-11-26T16:03:05.396Z,5.80
2017-11-26T16:05:32.769Z,6.80
2017-11-26T16:08:00.082Z,6.97
2017-11-26T16:10:27.797Z,6.90
2017-11-26T16:12:55.543Z,7.47
2017-11-26T16:15:22.954Z,7.30
2017-11-26T16:17:50.257Z,7.80
2017-11-26T16:20:17.606Z,6.80
2017-11-26T16:22:44.917Z,5.70
2017-11-26T16:25:12.216Z,7.13
2017-11-26T16:27:39.570Z,4.87
2017-11-26T16:30:06.879Z,7.00
2017-11-26T16:32:34.186Z,6.70
2017-11-26T16:35:01.530Z,5.37
2017-11-26T16:37:28.847Z,6.83
2017-11-26T16:39:56.545Z,6.83
2017-11-26T16:42:23.929Z,6.90
2017-11-26T16:44:51.576Z,6.80
2017-11-26T16:47:19.245Z,7.30
2017-11-26T16:49:46.889Z,7.20
2017-11-26T16:52:15.141Z,7.83
2017-11-26T16:54:42.809Z,6.90
2017-11-26T16:57:10.540Z,7.07
2017-11-26T16:59:37.856Z,8.37
2017-11-26T17:02:05.519Z,8.70
2017-11-26T17:04:33.167Z,8.27
2017-11-26T17:07:00.466Z,7.50
2017-11-26T17:09:27.776Z,7.90
2017-11-26T17:11:55.510Z,7.93
2017-11-26T17:14:23.244Z,9.20
2017-11-26T17:16:50.554Z,9.37
2017-11-26T17:19:17.874Z,7.83
2017-11-26T17:21:45.308Z,7.50
2017-11-26T17:24:12.896Z,8.83
2017-11-26T17:26:40.276Z,7.43
2017-11-26T17:29:07.641Z,8.50
2017-11-26T17:31:34.970Z,8.67
2017-11-26T17:34:02.341Z,8.63
2017-11-26T17:36:29.691Z,7.83
2017-11-26T17:38:57.042Z,10.60
2017-11-26T17:41:24.391Z,10.20
2017-11-26T17:43:51.725Z,7.33
2017-11-26T17:46:19.101Z,7.57
2017-11-26T17:48:46.454Z,8.63
2017-11-26T17:51:13.894Z,8.00
2017-11-26T17:53:41.619Z,8.85
2017-11-26T17:56:09.104Z,7.60
2017-11-26T17:58:36.463Z,8.07
2017-11-26T18:01:03.915Z,8.60
2017-11-26T18:03:31.311Z,7.53
2017-11-26T18:05:58.680Z,7.43
2017-11-26T18:08:26.109Z,7.10
2017-11-26T18:10:53.432Z,7.67
2017-11-26T18:13:20.820Z,7.53
2017-11-26T18:15:48.224Z,7.40
2017-11-26T18:18:15.606Z,6.17
2017-11-26T18:20:42.955Z,7.00
2017-11-26T18:23:10.376Z,7.20
2017-11-26T18:25:37.760Z,7.40
2017-11-26T18:28:05.131Z,6.73
2017-11-26T18:30:32.556Z,6.60
2017-11-26T18:32:59.946Z,7.13
2017-11-26T18:35:27.295Z,6.23
2017-11-26T18:37:54.705Z,7.70
2017-11-26T18:40:22.093Z,6.37
2017-11-26T18:42:49.465Z,6.93
2017-11-26T18:45:16.804Z,5.60
2017-11-26T18:47:44.152Z,6.70
2017-11-26T18:50:11.566Z,6.00
2017-11-26T18:52:38.892Z,6.67
2017-11-26T18:55:06.246Z,6.50
2017-11-26T18:57:33.593Z,6.70
2017-11-26T19:00:00.954Z,6.20
2017-11-26T19:02:28.281Z,6.53
2017-11-26T19:04:55.632Z,6.20
2017-11-26T19:07:23.006Z,6.00
2017-11-26T19:09:50.404Z,6.53
2017-11-26T19:12:17.809Z,7.50
2017-11-26T19:14:45.278Z,6.97
2017-11-26T19:17:12.610Z,7.27
2017-11-26T19:19:40.033Z,7.23
2017-11-26T19:22:07.432Z,7.30
2017-11-26T19:24:34.857Z,6.50
2017-11-26T19:27:02.233Z,7.03
2017-11-26T19:29:29.731Z,7.00
2017-11-26T19:31:57.274Z,6.90
2017-11-26T19:34:24.612Z,6.73
2017-11-26T19:36:51.953Z,6.33
2017-11-26T19:39:19.396Z,6.13
2017-11-26T19:41:46.775Z,6.80
2017-11-26T19:44:14.134Z,7.00
2017-11-26T19:46:41.489Z,6.37
2017-11-26T19:49:09.411Z,6.17
2017-11-26T19:51:36.822Z,6.07
2017-11-26T19:54:04.144Z,6.73
2017-11-26T19:56:31.461Z,6.80
2017-11-26T19:58:59.392Z,7.20
2017-11-26T20:01:26.763Z,6.90
2017-11-26T20:03:54.513Z,7.17
2017-11-26T20:06:21.865Z,6.80
2017-11-26T20:08:49.560Z,8.50
2017-11-26T20:11:16.877Z,7.17
2017-11-26T20:13:44.570Z,7.50
2017-11-26T20:16:12.012Z,6.77
2017-11-26T20:18:39.407Z,6.70
2017-11-26T20:21:07.022Z,7.20
2017-11-26T20:23:34.368Z,6.47
2017-11-26T20:26:02.049Z,5.60
2017-11-26T20:28:29.858Z,7.33
2017-11-26T20:30:57.485Z,6.90
2017-11-26T20:33:24.801Z,6.07
2017-11-26T20:35:52.124Z,6.93
2017-11-26T20:38:19.756Z,7.67
2017-11-26T20:40:47.053Z,7.10
2017-11-26T20:43:14.575Z,7.10
2017-11-26T20:45:41.892Z,6.63
2017-11-26T20:48:09.597Z,8.07
2017-11-26T20:50:37.254Z,7.20
2017-11-26T20:53:04.549Z,8.07
2017-11-26T20:55:31.884Z,8.03
2017-11-26T20:57:59.531Z,6.40
2017-11-26T21:00:27.173Z,7.20
2017-11-26T21:02:54.485Z,7.50
2017-11-26T21:05:21.825Z,7.30
2017-11-26T21:07:49.262Z,5.20
2017-11-26T21:10:16.900Z,7.70
2017-11-26T21:12:44.238Z,7.37
2017-11-26T21:15:15.073Z,7.70
2017-11-26T21:17:42.742Z,8.40
2017-11-26T21:20:10.462Z,7.50
2017-11-26T21:22:37.771Z,8.57
2017-11-26T21:25:05.414Z,7.60
2017-11-26T21:27:33.102Z,7.30
2017-11-26T21:30:00.437Z,7.50
2017-11-26T21:32:28.146Z,7.73
2017-11-26T21:34:55.767Z,8.10
2017-11-26T21:37:23.118Z,8.90
2017-11-26T21:39:50.475Z,8.05
2017-11-26T21:44:44.544Z,8.25
2017-11-26T21:54:33.573Z,7.33
2017-11-26T21:57:01.258Z,8.40
2017-11-26T22:01:55.292Z,7.90
2017-11-26T22:04:23.018Z,8.00
2017-11-26T22:06:50.650Z,7.50
2017-11-26T22:11:44.701Z,7.75
2017-11-26T22:14:12.281Z,8.10
2017-11-26T22:16:39.666Z,6.83
2017-11-26T22:19:06.980Z,7.43
2017-11-26T22:21:34.282Z,8.13
2017-11-26T22:24:01.615Z,7.63
2017-11-26T22:26:30.354Z,7.67
2017-11-26T22:28:57.997Z,7.37
2017-11-26T22:31:25.638Z,7.00
2017-11-26T22:33:53.035Z,6.97
2017-11-26T22:36:20.677Z,6.77
2017-11-26T22:38:48.309Z,8.10
2017-11-26T22:41:15.913Z,7.67
2017-11-26T22:43:43.231Z,7.23
2017-11-26T22:46:10.574Z,8.00
2017-11-26T22:48:38.258Z,7.30
2017-11-26T22:51:05.573Z,7.80
2017-11-26T22:53:33.356Z,7.57
2017-11-26T22:56:00.727Z,7.50
2017-11-26T22:58:28.462Z,8.07
2017-11-26T23:00:56.155Z,8.40
2017-11-26T23:03:23.451Z,8.00
2017-11-26T23:05:50.774Z,7.87
2017-11-26T23:08:18.405Z,7.50
2017-11-26T23:10:46.102Z,8.10
2017-11-26T23:13:13.719Z,7.43
2017-11-26T23:15:41.401Z,7.20
2017-11-26T23:18:08.710Z,8.60
2017-11-26T23:20:36.112Z,6.73
2017-11-26T23:23:03.425Z,7.60
2017-11-26T23:25:31.105Z,6.77
2017-11-26T23:27:59.053Z,6.60
2017-11-26T23:30:26.840Z,7.47
2017-11-26T23:32:54.180Z,7.00
2017-11-26T23:35:21.491Z,9.00
2017-11-26T23:37:49.133Z,6.97
2017-11-26T23:40:16.429Z,7.80
2017-11-26T23:42:43.772Z,7.70
2017-11-26T23:45:11.086Z,8.20
2017-11-26T23:47:38.458Z,7.60
2017-11-26T23:50:06.189Z,7.00
2017-11-26T23:52:33.899Z,6.90
2017-11-26T23:55:01.610Z,6.77
2017-11-26T23:57:29.273Z,7.50
2017-11-26T23:59:56.966Z,7.70
